sensor_id;sensor_type;location;lat;lon;timestamp;pressure;altitude;pressure_sealevel;temperature;humidity
54882;BME280;40775;51.448;4.742;2022-07-23T00:00:27;101744.81;;;19.80;67.84
54882;BME280;40775;51.448;4.742;2022-07-23T00:02:59;101754.59;;;19.80;67.91
54882;BME280;40775;51.448;4.742;2022-07-23T00:05:26;101750.19;;;19.72;68.26
54882;BME280;40775;51.448;4.742;2022-07-23T00:07:54;101742.19;;;19.72;67.99
54882;BME280;40775;51.448;4.742;2022-07-23T00:10:21;101737.72;;;19.71;67.90
54882;BME280;40775;51.448;4.742;2022-07-23T00:12:48;101742.19;;;19.74;68.01
54882;BME280;40775;51.448;4.742;2022-07-23T00:15:18;101736.81;;;19.79;67.59
54882;BME280;40775;51.448;4.742;2022-07-23T00:17:45;101734.13;;;19.83;67.62
54882;BME280;40775;51.448;4.742;2022-07-23T00:20:13;101730.63;;;19.75;68.05
54882;BME280;40775;51.448;4.742;2022-07-23T00:22:53;101746.59;;;19.77;67.69
54882;BME280;40775;51.448;4.742;2022-07-23T00:25:22;101732.41;;;19.73;67.92
54882;BME280;40775;51.448;4.742;2022-07-23T00:28:00;101747.50;;;19.72;67.53
54882;BME280;40775;51.448;4.742;2022-07-23T00:30:28;101754.59;;;19.70;67.84
54882;BME280;40775;51.448;4.742;2022-07-23T00:33:03;101743.94;;;19.70;67.84
54882;BME280;40775;51.448;4.742;2022-07-23T00:35:35;101750.16;;;19.69;67.97
54882;BME280;40775;51.448;4.742;2022-07-23T00:38:04;101741.28;;;19.67;67.93
54882;BME280;40775;51.448;4.742;2022-07-23T00:40:32;101742.19;;;19.62;68.00
54882;BME280;40775;51.448;4.742;2022-07-23T00:42:59;101743.09;;;19.56;68.24
54882;BME280;40775;51.448;4.742;2022-07-23T00:45:27;101733.31;;;19.49;68.64
54882;BME280;40775;51.448;4.742;2022-07-23T00:47:55;101727.97;;;19.44;68.79
54882;BME280;40775;51.448;4.742;2022-07-23T00:50:22;101731.53;;;19.40;68.88
54882;BME280;40775;51.448;4.742;2022-07-23T00:52:49;101725.34;;;19.32;68.92
54882;BME280;40775;51.448;4.742;2022-07-23T00:55:16;101714.72;;;19.31;69.05
54882;BME280;40775;51.448;4.742;2022-07-23T00:57:43;101706.72;;;19.26;69.50
54882;BME280;40775;51.448;4.742;2022-07-23T01:00:13;101712.94;;;19.27;69.30
54882;BME280;40775;51.448;4.742;2022-07-23T01:02:41;101714.72;;;19.23;69.28
54882;BME280;40775;51.448;4.742;2022-07-23T01:05:09;101721.81;;;19.23;69.43
54882;BME280;40775;51.448;4.742;2022-07-23T01:07:37;101723.59;;;19.19;69.64
54882;BME280;40775;51.448;4.742;2022-07-23T01:10:05;101723.59;;;19.21;69.35
54882;BME280;40775;51.448;4.742;2022-07-23T01:12:53;101720.94;;;19.24;69.46
54882;BME280;40775;51.448;4.742;2022-07-23T01:15:20;101723.59;;;19.19;69.40
54882;BME280;40775;51.448;4.742;2022-07-23T01:17:47;101720.94;;;19.21;69.35
54882;BME280;40775;51.448;4.742;2022-07-23T01:20:14;101729.81;;;19.09;69.46
54882;BME280;40775;51.448;4.742;2022-07-23T01:22:41;101718.28;;;19.04;69.81
54882;BME280;40775;51.448;4.742;2022-07-23T01:25:08;101721.84;;;19.03;69.83
54882;BME280;40775;51.448;4.742;2022-07-23T01:27:35;101720.97;;;18.98;70.05
54882;BME280;40775;51.448;4.742;2022-07-23T01:30:04;101720.06;;;18.99;69.95
54882;BME280;40775;51.448;4.742;2022-07-23T01:32:31;101722.72;;;18.99;69.70
54882;BME280;40775;51.448;4.742;2022-07-23T01:34:58;101728.06;;;18.94;69.71
54882;BME280;40775;51.448;4.742;2022-07-23T01:37:26;101724.50;;;18.94;69.99
54882;BME280;40775;51.448;4.742;2022-07-23T01:39:53;101721.84;;;18.94;69.84
54882;BME280;40775;51.448;4.742;2022-07-23T01:42:20;101720.03;;;18.88;70.06
54882;BME280;40775;51.448;4.742;2022-07-23T01:44:47;101717.38;;;18.87;69.98
54882;BME280;40775;51.448;4.742;2022-07-23T01:47:14;101719.16;;;18.89;69.88
54882;BME280;40775;51.448;4.742;2022-07-23T01:49:42;101716.50;;;18.77;69.96
54882;BME280;40775;51.448;4.742;2022-07-23T01:52:09;101712.06;;;18.76;69.71
54882;BME280;40775;51.448;4.742;2022-07-23T01:54:38;101721.84;;;18.72;70.13
54882;BME280;40775;51.448;4.742;2022-07-23T01:57:07;101711.19;;;18.77;70.10
54882;BME280;40775;51.448;4.742;2022-07-23T01:59:35;101705.88;;;18.72;70.38
54882;BME280;40775;51.448;4.742;2022-07-23T02:02:02;101709.41;;;18.70;70.14
54882;BME280;40775;51.448;4.742;2022-07-23T02:04:30;101700.56;;;18.65;69.97
54882;BME280;40775;51.448;4.742;2022-07-23T02:06:58;101705.00;;;18.63;70.23
54882;BME280;40775;51.448;4.742;2022-07-23T02:09:25;101705.81;;;18.57;70.18
54882;BME280;40775;51.448;4.742;2022-07-23T02:11:52;101704.03;;;18.50;70.08
54882;BME280;40775;51.448;4.742;2022-07-23T02:14:19;101705.81;;;18.45;70.46
54882;BME280;40775;51.448;4.742;2022-07-23T02:16:46;101703.16;;;18.39;70.33
54882;BME280;40775;51.448;4.742;2022-07-23T02:19:14;101709.31;;;18.35;70.64
54882;BME280;40775;51.448;4.742;2022-07-23T02:21:41;101712.84;;;18.32;71.05
54882;BME280;40775;51.448;4.742;2022-07-23T02:24:08;101716.38;;;18.30;71.04
54882;BME280;40775;51.448;4.742;2022-07-23T02:26:35;101715.50;;;18.23;71.07
54882;BME280;40775;51.448;4.742;2022-07-23T02:29:04;101705.75;;;18.17;71.28
54882;BME280;40775;51.448;4.742;2022-07-23T02:31:32;101712.84;;;18.18;71.04
54882;BME280;40775;51.448;4.742;2022-07-23T02:33:59;101711.06;;;18.16;71.20
54882;BME280;40775;51.448;4.742;2022-07-23T02:36:27;101708.41;;;18.14;71.22
54882;BME280;40775;51.448;4.742;2022-07-23T02:38:55;101710.13;;;18.08;70.87
54882;BME280;40775;51.448;4.742;2022-07-23T02:41:22;101717.25;;;18.10;71.21
54882;BME280;40775;51.448;4.742;2022-07-23T02:43:50;101710.09;;;18.03;71.26
54882;BME280;40775;51.448;4.742;2022-07-23T02:46:17;101715.41;;;18.03;70.96
54882;BME280;40775;51.448;4.742;2022-07-23T02:48:44;101724.28;;;18.04;71.29
54882;BME280;40775;51.448;4.742;2022-07-23T02:51:11;101724.28;;;17.98;71.00
54882;BME280;40775;51.448;4.742;2022-07-23T02:53:41;101730.47;;;17.95;71.31
54882;BME280;40775;51.448;4.742;2022-07-23T02:56:08;101721.59;;;17.96;71.38
54882;BME280;40775;51.448;4.742;2022-07-23T02:58:36;101724.25;;;17.95;71.49
54882;BME280;40775;51.448;4.742;2022-07-23T03:01:03;101727.81;;;17.95;71.54
54882;BME280;40775;51.448;4.742;2022-07-23T03:03:30;101725.16;;;17.95;71.68
54882;BME280;40775;51.448;4.742;2022-07-23T03:05:57;101726.91;;;17.95;71.65
54882;BME280;40775;51.448;4.742;2022-07-23T03:08:25;101724.25;;;17.96;71.68
54882;BME280;40775;51.448;4.742;2022-07-23T03:10:52;101731.34;;;17.94;71.51
54882;BME280;40775;51.448;4.742;2022-07-23T03:13:19;101737.53;;;17.96;71.26
54882;BME280;40775;51.448;4.742;2022-07-23T03:15:46;101732.22;;;17.96;71.49
54882;BME280;40775;51.448;4.742;2022-07-23T03:18:13;101742.84;;;17.96;71.55
54882;BME280;40775;51.448;4.742;2022-07-23T03:20:40;101747.28;;;17.97;71.39
54882;BME280;40775;51.448;4.742;2022-07-23T03:23:07;101743.75;;;17.94;71.18
54882;BME280;40775;51.448;4.742;2022-07-23T03:25:34;101746.38;;;17.90;71.58
54882;BME280;40775;51.448;4.742;2022-07-23T03:28:01;101742.81;;;17.87;71.60
54882;BME280;40775;51.448;4.742;2022-07-23T03:30:28;101741.94;;;17.88;71.55
54882;BME280;40775;51.448;4.742;2022-07-23T03:32:56;101745.47;;;17.85;71.46
54882;BME280;40775;51.448;4.742;2022-07-23T03:35:23;101741.00;;;17.80;71.13
54882;BME280;40775;51.448;4.742;2022-07-23T03:37:50;101747.16;;;17.71;71.01
54882;BME280;40775;51.448;4.742;2022-07-23T03:40:17;101743.59;;;17.69;71.24
54882;BME280;40775;51.448;4.742;2022-07-23T03:42:45;101746.28;;;17.69;71.33
54882;BME280;40775;51.448;4.742;2022-07-23T03:45:12;101753.31;;;17.66;71.28
54882;BME280;40775;51.448;4.742;2022-07-23T03:47:39;101748.03;;;17.67;71.85
54882;BME280;40775;51.448;4.742;2022-07-23T03:50:08;101751.53;;;17.65;71.87
54882;BME280;40775;51.448;4.742;2022-07-23T03:52:35;101747.97;;;17.64;71.71
54882;BME280;40775;51.448;4.742;2022-07-23T03:55:04;101755.94;;;17.61;71.53
54882;BME280;40775;51.448;4.742;2022-07-23T03:57:31;101744.44;;;17.62;71.65
54882;BME280;40775;51.448;4.742;2022-07-23T03:59:58;101759.47;;;17.60;71.91
54882;BME280;40775;51.448;4.742;2022-07-23T04:02:25;101757.69;;;17.57;71.30
54882;BME280;40775;51.448;4.742;2022-07-23T04:04:52;101753.25;;;17.53;71.92
54882;BME280;40775;51.448;4.742;2022-07-23T04:07:19;101755.84;;;17.49;71.74
54882;BME280;40775;51.448;4.742;2022-07-23T04:09:47;101764.69;;;17.46;72.23
54882;BME280;40775;51.448;4.742;2022-07-23T04:12:14;101761.13;;;17.46;71.96
54882;BME280;40775;51.448;4.742;2022-07-23T04:14:41;101767.31;;;17.43;72.06
54882;BME280;40775;51.448;4.742;2022-07-23T04:17:08;101768.22;;;17.45;72.18
54882;BME280;40775;51.448;4.742;2022-07-23T04:19:35;101778.81;;;17.44;72.25
54882;BME280;40775;51.448;4.742;2022-07-23T04:22:07;101772.63;;;17.45;72.19
54882;BME280;40775;51.448;4.742;2022-07-23T04:24:38;101770.88;;;17.45;72.23
54882;BME280;40775;51.448;4.742;2022-07-23T04:27:05;101769.06;;;17.41;72.49
54882;BME280;40775;51.448;4.742;2022-07-23T04:29:33;101776.13;;;17.39;72.89
54882;BME280;40775;51.448;4.742;2022-07-23T04:32:00;101769.06;;;17.41;73.00
54882;BME280;40775;51.448;4.742;2022-07-23T04:34:28;101769.09;;;17.44;73.07
54882;BME280;40775;51.448;4.742;2022-07-23T04:36:55;101774.44;;;17.50;73.15
54882;BME280;40775;51.448;4.742;2022-07-23T04:39:22;101768.22;;;17.50;73.10
54882;BME280;40775;51.448;4.742;2022-07-23T04:41:50;101774.47;;;17.53;73.38
54882;BME280;40775;51.448;4.742;2022-07-23T04:44:17;101778.06;;;17.60;73.22
54882;BME280;40775;51.448;4.742;2022-07-23T04:46:44;101776.31;;;17.65;73.09
54882;BME280;40775;51.448;4.742;2022-07-23T04:49:13;101786.06;;;17.66;73.29
54882;BME280;40775;51.448;4.742;2022-07-23T04:51:40;101787.00;;;17.70;73.21
54882;BME280;40775;51.448;4.742;2022-07-23T04:54:07;101783.47;;;17.72;73.71
54882;BME280;40775;51.448;4.742;2022-07-23T04:56:34;101780.81;;;17.75;73.79
54882;BME280;40775;51.448;4.742;2022-07-23T04:59:01;101787.91;;;17.78;73.74
54882;BME280;40775;51.448;4.742;2022-07-23T05:01:29;101791.50;;;17.83;73.67
54882;BME280;40775;51.448;4.742;2022-07-23T05:03:56;101786.22;;;17.84;73.75
54882;BME280;40775;51.448;4.742;2022-07-23T05:06:23;101787.09;;;17.83;73.64
54882;BME280;40775;51.448;4.742;2022-07-23T05:08:50;101788.88;;;17.86;73.65
54882;BME280;40775;51.448;4.742;2022-07-23T05:11:18;101796.84;;;17.89;73.91
54882;BME280;40775;51.448;4.742;2022-07-23T05:13:52;101795.97;;;17.90;73.85
54882;BME280;40775;51.448;4.742;2022-07-23T05:16:19;101784.47;;;17.94;74.04
54882;BME280;40775;51.448;4.742;2022-07-23T05:18:46;101780.94;;;17.95;73.90
54882;BME280;40775;51.448;4.742;2022-07-23T05:21:13;101776.53;;;18.00;74.05
54882;BME280;40775;51.448;4.742;2022-07-23T05:23:41;101784.50;;;17.99;74.10
54882;BME280;40775;51.448;4.742;2022-07-23T05:26:08;101784.53;;;18.08;74.09
54882;BME280;40775;51.448;4.742;2022-07-23T05:28:35;101793.44;;;18.10;74.21
54882;BME280;40775;51.448;4.742;2022-07-23T05:31:02;101797.88;;;18.17;74.46
54882;BME280;40775;51.448;4.742;2022-07-23T05:33:30;101797.03;;;18.26;74.24
54882;BME280;40775;51.448;4.742;2022-07-23T05:36:02;101799.69;;;18.33;74.13
54882;BME280;40775;51.448;4.742;2022-07-23T05:38:31;101797.03;;;18.33;74.26
54882;BME280;40775;51.448;4.742;2022-07-23T05:40:58;101803.31;;;18.43;74.30
54882;BME280;40775;51.448;4.742;2022-07-23T05:43:26;101806.84;;;18.48;74.28
54882;BME280;40775;51.448;4.742;2022-07-23T05:45:54;101803.31;;;18.52;74.19
54882;BME280;40775;51.448;4.742;2022-07-23T05:48:21;101809.53;;;18.62;74.15
54882;BME280;40775;51.448;4.742;2022-07-23T05:50:49;101808.72;;;18.70;73.71
54882;BME280;40775;51.448;4.742;2022-07-23T05:53:16;101816.72;;;18.72;73.54
54882;BME280;40775;51.448;4.742;2022-07-23T05:55:43;101809.63;;;18.72;72.84
54882;BME280;40775;51.448;4.742;2022-07-23T05:58:10;101815.84;;;18.82;73.08
54882;BME280;40775;51.448;4.742;2022-07-23T06:00:37;101812.31;;;18.94;73.32
54882;BME280;40775;51.448;4.742;2022-07-23T06:03:05;101806.13;;;18.98;72.63
54882;BME280;40775;51.448;4.742;2022-07-23T06:05:32;101812.31;;;19.09;73.30
54882;BME280;40775;51.448;4.742;2022-07-23T06:07:59;101817.69;;;19.18;73.04
54882;BME280;40775;51.448;4.742;2022-07-23T06:10:26;101807.03;;;19.26;73.01
54882;BME280;40775;51.448;4.742;2022-07-23T06:12:53;101809.69;;;19.30;72.96
54882;BME280;40775;51.448;4.742;2022-07-23T06:15:28;101821.19;;;19.40;73.01
54882;BME280;40775;51.448;4.742;2022-07-23T06:17:55;101815.03;;;19.53;72.65
54882;BME280;40775;51.448;4.742;2022-07-23T06:20:22;101823.00;;;19.58;72.72
54882;BME280;40775;51.448;4.742;2022-07-23T06:22:49;101819.44;;;19.72;72.68
54882;BME280;40775;51.448;4.742;2022-07-23T06:25:16;101815.00;;;19.73;71.23
54882;BME280;40775;51.448;4.742;2022-07-23T06:27:46;101801.66;;;19.79;71.20
54882;BME280;40775;51.448;4.742;2022-07-23T06:30:14;101802.53;;;19.86;71.53
54882;BME280;40775;51.448;4.742;2022-07-23T06:32:46;101804.28;;;20.00;71.35
54882;BME280;40775;51.448;4.742;2022-07-23T06:35:13;101814.03;;;20.08;70.83
54882;BME280;40775;51.448;4.742;2022-07-23T06:37:40;101810.44;;;20.15;71.05
54882;BME280;40775;51.448;4.742;2022-07-23T06:40:08;101811.28;;;20.30;70.74
54882;BME280;40775;51.448;4.742;2022-07-23T06:42:35;101807.66;;;20.39;70.80
54882;BME280;40775;51.448;4.742;2022-07-23T06:45:05;101803.16;;;20.59;70.44
54882;BME280;40775;51.448;4.742;2022-07-23T06:47:33;101808.44;;;20.65;70.05
54882;BME280;40775;51.448;4.742;2022-07-23T06:50:00;101808.41;;;20.72;69.78
54882;BME280;40775;51.448;4.742;2022-07-23T06:52:27;101807.47;;;20.77;69.05
54882;BME280;40775;51.448;4.742;2022-07-23T06:54:54;101807.38;;;20.94;68.54
54882;BME280;40775;51.448;4.742;2022-07-23T06:57:22;101809.03;;;21.10;68.95
54882;BME280;40775;51.448;4.742;2022-07-23T06:59:52;101811.50;;;21.36;69.00
54882;BME280;40775;51.448;4.742;2022-07-23T07:02:22;101815.16;;;21.23;67.78
54882;BME280;40775;51.448;4.742;2022-07-23T07:04:49;101807.09;;;21.32;67.63
54882;BME280;40775;51.448;4.742;2022-07-23T07:07:17;101818.63;;;21.39;67.86
54882;BME280;40775;51.448;4.742;2022-07-23T07:09:44;101808.63;;;21.59;67.30
54882;BME280;40775;51.448;4.742;2022-07-23T07:12:14;101808.63;;;21.59;66.56
54882;BME280;40775;51.448;4.742;2022-07-23T07:14:41;101807.56;;;21.77;66.12
54882;BME280;40775;51.448;4.742;2022-07-23T07:17:08;101806.66;;;21.79;65.74
54882;BME280;40775;51.448;4.742;2022-07-23T07:19:37;101807.47;;;21.84;65.05
54882;BME280;40775;51.448;4.742;2022-07-23T07:22:04;101812.63;;;22.06;64.66
54882;BME280;40775;51.448;4.742;2022-07-23T07:24:31;101815.25;;;22.09;64.33
54882;BME280;40775;51.448;4.742;2022-07-23T07:27:04;101816.16;;;22.09;64.71
54882;BME280;40775;51.448;4.742;2022-07-23T07:29:31;101804.53;;;22.10;64.08
54882;BME280;40775;51.448;4.742;2022-07-23T07:31:59;101817.72;;;22.27;63.89
54882;BME280;40775;51.448;4.742;2022-07-23T07:34:26;101823.44;;;22.66;64.14
54882;BME280;40775;51.448;4.742;2022-07-23T07:36:53;101818.94;;;22.68;64.03
54882;BME280;40775;51.448;4.742;2022-07-23T07:39:20;101827.94;;;22.64;63.51
54882;BME280;40775;51.448;4.742;2022-07-23T07:41:47;101821.59;;;22.69;63.47
54882;BME280;40775;51.448;4.742;2022-07-23T07:44:14;101832.34;;;22.66;63.84
54882;BME280;40775;51.448;4.742;2022-07-23T07:46:41;101822.59;;;22.64;63.02
54882;BME280;40775;51.448;4.742;2022-07-23T07:49:08;101820.16;;;23.08;63.86
54882;BME280;40775;51.448;4.742;2022-07-23T07:51:55;101833.88;;;23.44;62.70
54882;BME280;40775;51.448;4.742;2022-07-23T07:54:22;101830.22;;;23.48;62.51
54882;BME280;40775;51.448;4.742;2022-07-23T07:56:49;101823.84;;;23.54;62.01
54882;BME280;40775;51.448;4.742;2022-07-23T07:59:17;101836.78;;;23.30;61.49
54882;BME280;40775;51.448;4.742;2022-07-23T08:01:44;101842.47;;;23.09;62.25
54882;BME280;40775;51.448;4.742;2022-07-23T08:04:11;101836.31;;;23.59;63.10
54882;BME280;40775;51.448;4.742;2022-07-23T08:06:38;101837.38;;;23.48;62.79
54882;BME280;40775;51.448;4.742;2022-07-23T08:09:05;101842.00;;;23.90;63.27
54882;BME280;40775;51.448;4.742;2022-07-23T08:11:32;101835.06;;;23.79;61.16
54882;BME280;40775;51.448;4.742;2022-07-23T08:13:59;101834.06;;;23.83;62.42
54882;BME280;40775;51.448;4.742;2022-07-23T08:16:27;101834.88;;;23.89;61.43
54882;BME280;40775;51.448;4.742;2022-07-23T08:18:55;101845.09;;;24.15;61.65
54882;BME280;40775;51.448;4.742;2022-07-23T08:21:22;101841.34;;;24.24;61.55
54882;BME280;40775;51.448;4.742;2022-07-23T08:23:49;101842.94;;;24.34;62.01
54882;BME280;40775;51.448;4.742;2022-07-23T08:26:16;101849.22;;;24.33;60.67
54882;BME280;40775;51.448;4.742;2022-07-23T08:28:43;101851.66;;;24.45;60.49
54882;BME280;40775;51.448;4.742;2022-07-23T08:31:10;101849.34;;;24.70;60.55
54882;BME280;40775;51.448;4.742;2022-07-23T08:33:38;101843.53;;;24.88;59.43
54882;BME280;40775;51.448;4.742;2022-07-23T08:36:06;101853.78;;;24.71;59.36
54882;BME280;40775;51.448;4.742;2022-07-23T08:38:34;101853.88;;;24.68;59.13
54882;BME280;40775;51.448;4.742;2022-07-23T08:41:02;101841.09;;;24.78;59.04
54882;BME280;40775;51.448;4.742;2022-07-23T08:43:32;101841.72;;;24.50;58.24
54882;BME280;40775;51.448;4.742;2022-07-23T08:46:02;101837.91;;;24.60;58.34
54882;BME280;40775;51.448;4.742;2022-07-23T08:48:33;101835.75;;;24.76;58.14
54882;BME280;40775;51.448;4.742;2022-07-23T08:51:03;101842.59;;;24.89;58.94
54882;BME280;40775;51.448;4.742;2022-07-23T08:53:33;101838.06;;;24.91;58.29
54882;BME280;40775;51.448;4.742;2022-07-23T08:56:03;101839.66;;;25.03;57.42
54882;BME280;40775;51.448;4.742;2022-07-23T08:58:31;101836.97;;;25.03;56.98
54882;BME280;40775;51.448;4.742;2022-07-23T09:00:59;101844.09;;;25.04;56.46
54882;BME280;40775;51.448;4.742;2022-07-23T09:03:29;101832.19;;;25.14;56.76
54882;BME280;40775;51.448;4.742;2022-07-23T09:05:58;101838.94;;;25.32;57.70
54882;BME280;40775;51.448;4.742;2022-07-23T09:08:45;101838.59;;;25.44;56.95
54882;BME280;40775;51.448;4.742;2022-07-23T09:11:16;101842.06;;;25.51;57.73
54882;BME280;40775;51.448;4.742;2022-07-23T09:13:50;101843.91;;;25.83;56.34
54882;BME280;40775;51.448;4.742;2022-07-23T09:16:23;101840.88;;;25.61;55.83
54882;BME280;40775;51.448;4.742;2022-07-23T09:18:58;101850.06;;;25.88;56.17
54882;BME280;40775;51.448;4.742;2022-07-23T09:21:43;101840.16;;;25.88;54.38
54882;BME280;40775;51.448;4.742;2022-07-23T09:24:12;101839.94;;;25.96;54.59
54882;BME280;40775;51.448;4.742;2022-07-23T09:26:47;101849.66;;;26.02;55.04
54882;BME280;40775;51.448;4.742;2022-07-23T09:29:25;101849.47;;;26.09;54.30
54882;BME280;40775;51.448;4.742;2022-07-23T09:32:02;101861.13;;;26.10;53.96
54882;BME280;40775;51.448;4.742;2022-07-23T09:34:36;101852.78;;;26.50;55.00
54882;BME280;40775;51.448;4.742;2022-07-23T09:37:17;101851.59;;;26.28;53.82
54882;BME280;40775;51.448;4.742;2022-07-23T09:39:47;101850.53;;;26.66;53.99
54882;BME280;40775;51.448;4.742;2022-07-23T09:42:24;101851.44;;;26.94;52.59
54882;BME280;40775;51.448;4.742;2022-07-23T09:44:56;101843.03;;;26.75;52.54
54882;BME280;40775;51.448;4.742;2022-07-23T09:47:28;101840.81;;;26.60;53.81
54882;BME280;40775;51.448;4.742;2022-07-23T09:50:19;101842.16;;;26.75;53.75
54882;BME280;40775;51.448;4.742;2022-07-23T09:52:52;101840.22;;;27.08;53.07
54882;BME280;40775;51.448;4.742;2022-07-23T09:55:32;101836.88;;;27.28;51.65
54882;BME280;40775;51.448;4.742;2022-07-23T09:58:06;101835.47;;;27.16;51.23
54882;BME280;40775;51.448;4.742;2022-07-23T10:00:42;101842.00;;;27.35;51.52
54882;BME280;40775;51.448;4.742;2022-07-23T10:03:10;101836.72;;;27.32;50.65
54882;BME280;40775;51.448;4.742;2022-07-23T10:05:39;101837.88;;;27.25;50.90
54882;BME280;40775;51.448;4.742;2022-07-23T10:08:12;101845.84;;;27.28;50.39
54882;BME280;40775;51.448;4.742;2022-07-23T10:10:40;101836.94;;;27.26;50.57
54882;BME280;40775;51.448;4.742;2022-07-23T10:13:08;101838.03;;;27.74;49.28
54882;BME280;40775;51.448;4.742;2022-07-23T10:15:55;101842.44;;;27.76;50.14
54882;BME280;40775;51.448;4.742;2022-07-23T10:18:23;101843.56;;;27.95;49.68
54882;BME280;40775;51.448;4.742;2022-07-23T10:20:50;101835.47;;;27.95;49.76
54882;BME280;40775;51.448;4.742;2022-07-23T10:23:42;101838.09;;;28.20;49.60
54882;BME280;40775;51.448;4.742;2022-07-23T10:35:12;101838.97;;;28.22;48.74
54882;BME280;40775;51.448;4.742;2022-07-23T10:37:47;101840.53;;;28.29;48.61
54882;BME280;40775;51.448;4.742;2022-07-23T10:40:22;101840.41;;;28.33;48.05
54882;BME280;40775;51.448;4.742;2022-07-23T10:42:51;101833.19;;;28.56;47.51
54882;BME280;40775;51.448;4.742;2022-07-23T10:47:56;101839.84;;;28.70;47.12
54882;BME280;40775;51.448;4.742;2022-07-23T10:50:38;101834.00;;;28.58;47.50
54882;BME280;40775;51.448;4.742;2022-07-23T10:53:17;101832.00;;;28.40;46.73
54882;BME280;40775;51.448;4.742;2022-07-23T10:55:51;101837.09;;;28.95;47.26
54882;BME280;40775;51.448;4.742;2022-07-23T10:58:45;101831.94;;;29.32;47.12
54882;BME280;40775;51.448;4.742;2022-07-23T11:01:37;101826.84;;;29.46;45.54
54882;BME280;40775;51.448;4.742;2022-07-23T11:04:06;101831.38;;;29.46;45.22
54882;BME280;40775;51.448;4.742;2022-07-23T11:09:39;101820.94;;;29.57;45.63
54882;BME280;40775;51.448;4.742;2022-07-23T11:15:11;101820.00;;;29.99;46.70
54882;BME280;40775;51.448;4.742;2022-07-23T11:17:59;101823.63;;;29.59;44.64
54882;BME280;40775;51.448;4.742;2022-07-23T11:20:27;101823.63;;;29.59;45.61
54882;BME280;40775;51.448;4.742;2022-07-23T11:22:59;101819.94;;;29.80;44.07
54882;BME280;40775;51.448;4.742;2022-07-23T11:28:08;101815.50;;;29.37;46.21
54882;BME280;40775;51.448;4.742;2022-07-23T11:30:37;101818.50;;;29.29;45.11
54882;BME280;40775;51.448;4.742;2022-07-23T11:35:37;101817.19;;;29.61;45.41
54882;BME280;40775;51.448;4.742;2022-07-23T11:38:23;101820.44;;;29.90;44.35
54882;BME280;40775;51.448;4.742;2022-07-23T11:40:54;101811.97;;;30.36;43.93
54882;BME280;40775;51.448;4.742;2022-07-23T11:43:22;101807.88;;;30.47;43.50
54882;BME280;40775;51.448;4.742;2022-07-23T11:45:58;101809.53;;;30.69;41.78
54882;BME280;40775;51.448;4.742;2022-07-23T11:48:29;101800.41;;;30.33;43.23
54882;BME280;40775;51.448;4.742;2022-07-23T11:50:58;101803.47;;;30.25;43.32
54882;BME280;40775;51.448;4.742;2022-07-23T11:53:29;101802.59;;;30.25;42.46
54882;BME280;40775;51.448;4.742;2022-07-23T11:56:09;101801.13;;;30.36;42.57
54882;BME280;40775;51.448;4.742;2022-07-23T11:58:38;101796.38;;;30.41;43.05
54882;BME280;40775;51.448;4.742;2022-07-23T12:01:05;101802.47;;;30.47;43.44
54882;BME280;40775;51.448;4.742;2022-07-23T12:03:50;101792.09;;;30.75;43.11
54882;BME280;40775;51.448;4.742;2022-07-23T12:06:17;101793.03;;;31.10;41.51
54882;BME280;40775;51.448;4.742;2022-07-23T12:08:45;101792.00;;;31.13;42.51
54882;BME280;40775;51.448;4.742;2022-07-23T12:11:12;101785.34;;;31.37;42.19
54882;BME280;40775;51.448;4.742;2022-07-23T12:13:40;101787.25;;;31.35;42.30
54882;BME280;40775;51.448;4.742;2022-07-23T12:16:08;101792.50;;;31.21;41.36
54882;BME280;40775;51.448;4.742;2022-07-23T12:18:36;101796.94;;;31.04;42.01
54882;BME280;40775;51.448;4.742;2022-07-23T12:21:04;101788.06;;;31.54;41.69
54882;BME280;40775;51.448;4.742;2022-07-23T12:23:34;101792.78;;;30.97;41.56
54882;BME280;40775;51.448;4.742;2022-07-23T12:26:02;101799.81;;;30.83;42.06
54882;BME280;40775;51.448;4.742;2022-07-23T12:28:32;101799.69;;;30.86;43.08
54882;BME280;40775;51.448;4.742;2022-07-23T12:31:00;101794.78;;;30.75;41.60
54882;BME280;40775;51.448;4.742;2022-07-23T12:33:29;101790.38;;;30.54;42.33
54882;BME280;40775;51.448;4.742;2022-07-23T12:36:01;101802.56;;;30.64;42.37
54882;BME280;40775;51.448;4.742;2022-07-23T12:38:41;101795.91;;;30.71;41.71
54882;BME280;40775;51.448;4.742;2022-07-23T12:41:09;101785.13;;;31.05;41.18
54882;BME280;40775;51.448;4.742;2022-07-23T12:43:42;101786.69;;;30.92;42.19
54882;BME280;40775;51.448;4.742;2022-07-23T12:46:22;101787.00;;;30.86;41.96
54882;BME280;40775;51.448;4.742;2022-07-23T12:51:25;101768.31;;;31.68;40.55
54882;BME280;40775;51.448;4.742;2022-07-23T12:56:28;101772.16;;;31.64;38.55
54882;BME280;40775;51.448;4.742;2022-07-23T12:59:05;101776.88;;;31.43;38.39
54882;BME280;40775;51.448;4.742;2022-07-23T13:01:53;101774.19;;;31.78;39.52
54882;BME280;40775;51.448;4.742;2022-07-23T13:04:25;101772.16;;;31.64;38.96
54882;BME280;40775;51.448;4.742;2022-07-23T13:06:58;101777.22;;;32.05;41.03
54882;BME280;40775;51.448;4.742;2022-07-23T13:09:33;101779.06;;;32.04;38.92
54882;BME280;40775;51.448;4.742;2022-07-23T13:12:08;101771.28;;;32.14;39.17
54882;BME280;40775;51.448;4.742;2022-07-23T13:14:37;101771.53;;;31.76;38.35
54882;BME280;40775;51.448;4.742;2022-07-23T13:17:05;101776.91;;;31.78;38.88
54882;BME280;40775;51.448;4.742;2022-07-23T13:19:33;101775.59;;;31.85;38.89
54882;BME280;40775;51.448;4.742;2022-07-23T13:22:01;101774.88;;;31.64;38.51
54882;BME280;40775;51.448;4.742;2022-07-23T13:24:34;101766.00;;;31.95;38.96
54882;BME280;40775;51.448;4.742;2022-07-23T13:27:04;101769.50;;;31.97;38.91
54882;BME280;40775;51.448;4.742;2022-07-23T13:29:33;101772.69;;;32.05;39.29